YXE weather

Saskatoon John G. Diefenbaker International Airport
Saskatoon, Saskatchewan, Canada

Public forecast

Using degrees Celsius for public forecast. Weather courtesy of forecast.io.

Current aviation weather report (METAR) for Saskatoon John G. Diefenbaker International Airport

Retrieved 2019/12/06 02:00 UTC (52 minutes ago):

CYXE 060200Z 21008KT 15SM FEW240 M09/M10 A3010 RMK CI1 SLP237

Aviation forecast (TAF) for Saskatoon John G. Diefenbaker International Airport

Retrieved 2019-12-06 00:48 UTC (2 hours ago):

TAF CYXE 052338Z 0600/0624 18006KT P6SM FEW030 SCT260 FM060800 29008KT P6SM FEW010 PROB30 0608/0614 1/2SM FZFG VV002 FM061400 24006KT P6SM SCT012 BKN040 TEMPO 0614/0617 SCT005 BKN010 FM061700 24006KT P6SM SCT120 RMK NXT FCST BY 060600Z